createdAt,value
2023-01-09T00:01:28.324Z,5.90
2023-01-09T00:03:56.236Z,5.85
2023-01-09T00:06:25.550Z,5.75
2023-01-09T00:08:53.508Z,5.59
2023-01-09T00:11:21.729Z,5.61
2023-01-09T00:13:49.715Z,5.65
2023-01-09T00:16:17.956Z,5.61
2023-01-09T00:18:46.032Z,5.63
2023-01-09T00:21:14.478Z,5.53
2023-01-09T00:23:43.896Z,5.62
2023-01-09T00:26:14.380Z,5.69
2023-01-09T00:28:42.443Z,5.70
2023-01-09T00:31:10.950Z,5.67
2023-01-09T00:33:41.036Z,5.68
2023-01-09T00:36:09.597Z,5.68
2023-01-09T00:38:37.875Z,5.70
2023-01-09T00:41:08.576Z,5.73
2023-01-09T00:43:39.384Z,5.78
2023-01-09T00:46:08.304Z,5.79
2023-01-09T00:48:38.511Z,5.84
2023-01-09T00:51:08.229Z,5.83
2023-01-09T00:53:38.243Z,5.82
2023-01-09T00:56:10.966Z,5.84
2023-01-09T00:58:39.003Z,5.87
2023-01-09T01:01:07.335Z,5.92
2023-01-09T01:03:35.346Z,5.83
2023-01-09T01:06:21.056Z,5.80
2023-01-09T01:08:49.026Z,5.76
2023-01-09T01:11:18.299Z,5.78
2023-01-09T01:13:46.311Z,5.78
2023-01-09T01:16:14.847Z,5.79
2023-01-09T01:18:42.894Z,5.76
2023-01-09T01:21:13.226Z,5.74
2023-01-09T01:23:41.384Z,5.74
2023-01-09T01:26:11.532Z,5.74
2023-01-09T01:28:41.058Z,5.72
2023-01-09T01:31:09.546Z,5.78
2023-01-09T01:33:37.525Z,5.75
2023-01-09T01:36:07.185Z,5.73
2023-01-09T01:38:35.559Z,5.69
2023-01-09T01:41:03.607Z,5.67
2023-01-09T01:43:51.910Z,5.67
2023-01-09T01:46:20.305Z,5.72
2023-01-09T01:48:49.771Z,5.75
2023-01-09T01:51:18.610Z,5.74
2023-01-09T01:53:48.515Z,5.78
2023-01-09T01:56:19.343Z,5.79
2023-01-09T01:58:49.651Z,5.80
2023-01-09T02:01:19.464Z,5.79
2023-01-09T02:03:47.496Z,5.88
2023-01-09T02:06:15.534Z,5.93
2023-01-09T02:08:44.225Z,5.88
2023-01-09T02:11:14.502Z,5.84
2023-01-09T02:13:43.395Z,5.93
2023-01-09T02:16:22.731Z,6.00
2023-01-09T02:18:52.405Z,6.02
2023-01-09T02:21:29.091Z,6.09
2023-01-09T02:24:32.388Z,6.21
2023-01-09T02:27:08.959Z,6.21
2023-01-09T02:29:47.779Z,6.15
2023-01-09T02:32:25.630Z,6.35
2023-01-09T02:34:59.287Z,6.35
2023-01-09T02:37:33.836Z,6.47
2023-01-09T02:40:06.119Z,6.50
2023-01-09T02:42:35.552Z,6.53
2023-01-09T02:45:03.474Z,6.52
2023-01-09T02:47:41.318Z,6.54
2023-01-09T02:50:12.263Z,6.65
2023-01-09T02:52:51.089Z,6.66
2023-01-09T02:55:29.919Z,6.63
2023-01-09T02:58:08.563Z,6.65
2023-01-09T03:00:41.653Z,6.69
2023-01-09T03:03:15.908Z,6.67
2023-01-09T03:05:47.546Z,6.66
2023-01-09T03:08:18.238Z,6.56
2023-01-09T03:10:51.937Z,6.65
2023-01-09T03:13:21.179Z,6.56
2023-01-09T03:15:50.810Z,6.62
2023-01-09T03:18:23.045Z,6.54
2023-01-09T03:20:51.548Z,6.66
2023-01-09T03:23:19.512Z,6.62
2023-01-09T03:25:47.492Z,6.61
2023-01-09T03:28:28.361Z,6.65
2023-01-09T03:30:56.243Z,6.62
2023-01-09T03:33:25.610Z,6.62
2023-01-09T03:35:53.522Z,6.61
2023-01-09T03:38:21.402Z,6.62
2023-01-09T03:40:49.319Z,6.63
2023-01-09T03:43:17.242Z,6.61
2023-01-09T03:45:45.232Z,6.56
2023-01-09T03:48:13.176Z,6.59
2023-01-09T03:50:45.861Z,6.56
2023-01-09T03:53:13.908Z,6.63
2023-01-09T03:55:45.063Z,6.59
2023-01-09T03:58:13.096Z,6.62
2023-01-09T04:00:41.060Z,6.62
2023-01-09T04:03:09.621Z,6.64
2023-01-09T04:05:37.576Z,6.67
2023-01-09T04:08:07.420Z,6.65
2023-01-09T04:10:35.392Z,6.67
2023-01-09T04:13:03.319Z,6.67
2023-01-09T04:15:31.266Z,6.70
2023-01-09T04:17:59.171Z,6.69
2023-01-09T04:20:27.101Z,6.67
2023-01-09T04:22:54.964Z,6.68
2023-01-09T04:25:24.249Z,6.67
2023-01-09T04:27:52.187Z,6.65
2023-01-09T04:30:20.397Z,6.65
2023-01-09T04:32:48.314Z,6.65
2023-01-09T04:35:16.329Z,6.67
2023-01-09T04:37:44.300Z,6.64
2023-01-09T04:40:13.462Z,6.66
2023-01-09T04:42:42.847Z,6.67
2023-01-09T04:45:12.114Z,6.63
2023-01-09T04:47:40.029Z,6.66
2023-01-09T04:50:08.443Z,6.66
2023-01-09T04:52:38.872Z,6.65
2023-01-09T04:55:08.207Z,6.67
2023-01-09T04:57:36.292Z,6.68
2023-01-09T05:00:09.872Z,6.59
2023-01-09T05:02:38.259Z,6.64
2023-01-09T05:05:09.686Z,6.73
2023-01-09T05:07:39.254Z,6.70
2023-01-09T05:10:08.543Z,6.70
2023-01-09T05:12:39.839Z,6.63
2023-01-09T05:15:10.547Z,6.60
2023-01-09T05:17:38.469Z,6.60
2023-01-09T05:20:07.071Z,6.64
2023-01-09T05:22:35.004Z,6.59
2023-01-09T05:25:02.895Z,6.60
2023-01-09T05:27:30.850Z,6.54
2023-01-09T05:29:58.761Z,6.59
2023-01-09T05:32:28.042Z,6.63
2023-01-09T05:34:55.945Z,6.68
2023-01-09T05:37:23.850Z,6.65
2023-01-09T05:39:51.775Z,6.68
2023-01-09T05:42:19.674Z,6.67
2023-01-09T05:44:47.577Z,6.68
2023-01-09T05:47:15.502Z,6.64
2023-01-09T05:49:44.827Z,6.64
2023-01-09T05:52:12.731Z,6.67
2023-01-09T05:54:40.647Z,6.63
2023-01-09T05:57:08.533Z,6.65
2023-01-09T05:59:36.430Z,6.65
2023-01-09T06:02:04.419Z,6.61
2023-01-09T06:04:32.339Z,6.65
2023-01-09T06:07:01.651Z,6.62
2023-01-09T06:09:30.745Z,6.64
2023-01-09T06:11:58.869Z,6.63
2023-01-09T06:14:29.089Z,6.57
2023-01-09T06:16:57.016Z,6.56
2023-01-09T06:19:24.938Z,6.54
2023-01-09T06:21:53.753Z,6.56
2023-01-09T06:24:23.093Z,6.55
2023-01-09T06:26:50.995Z,6.51
2023-01-09T06:29:19.142Z,6.50
2023-01-09T06:31:47.031Z,6.48
2023-01-09T06:34:15.014Z,6.44
2023-01-09T06:36:42.938Z,6.43
2023-01-09T06:39:14.196Z,6.46
2023-01-09T06:41:47.044Z,6.42
2023-01-09T06:44:16.413Z,6.37
2023-01-09T06:46:44.317Z,6.35
2023-01-09T06:49:12.886Z,6.34
2023-01-09T06:51:43.099Z,6.31
2023-01-09T06:54:10.967Z,6.30
2023-01-09T06:56:38.882Z,6.29
2023-01-09T06:59:08.150Z,6.29
2023-01-09T07:01:36.231Z,6.31
2023-01-09T07:04:05.388Z,6.29
2023-01-09T07:06:33.732Z,6.25
2023-01-09T07:09:01.678Z,6.26
2023-01-09T07:11:29.618Z,6.28
2023-01-09T07:13:57.550Z,6.30
2023-01-09T07:16:26.866Z,6.33
2023-01-09T07:18:54.937Z,6.35
2023-01-09T07:21:22.906Z,6.39
2023-01-09T07:23:50.814Z,6.38
2023-01-09T07:26:18.718Z,6.42
2023-01-09T07:28:46.617Z,6.40
2023-01-09T07:31:14.651Z,6.43
2023-01-09T07:33:44.030Z,6.41
2023-01-09T07:36:12.689Z,6.39
2023-01-09T07:38:40.629Z,6.44
2023-01-09T07:41:11.413Z,6.42
2023-01-09T07:43:39.827Z,6.45
2023-01-09T07:46:07.951Z,6.43
2023-01-09T07:48:35.901Z,6.44
2023-01-09T07:51:06.242Z,6.42
2023-01-09T07:53:34.156Z,6.39
2023-01-09T07:56:02.079Z,6.37
2023-01-09T07:58:29.982Z,6.31
2023-01-09T08:00:57.943Z,6.26
2023-01-09T08:03:26.895Z,6.25
2023-01-09T08:05:54.905Z,6.19
2023-01-09T08:08:24.195Z,6.14
2023-01-09T08:10:52.165Z,6.14
2023-01-09T08:13:20.084Z,6.05
2023-01-09T08:15:48.108Z,6.08
2023-01-09T08:18:16.045Z,6.06
2023-01-09T08:20:43.934Z,6.06
2023-01-09T08:23:11.848Z,5.93
2023-01-09T08:25:41.121Z,5.97
2023-01-09T08:28:09.520Z,5.96
2023-01-09T08:30:37.648Z,5.99
2023-01-09T08:33:05.943Z,5.90
2023-01-09T08:35:33.884Z,5.85
2023-01-09T08:38:01.870Z,5.87
2023-01-09T08:40:29.854Z,5.85
2023-01-09T08:43:16.715Z,5.84
2023-01-09T08:46:16.745Z,5.80
2023-01-09T08:48:44.722Z,5.81
2023-01-09T08:51:12.791Z,5.85
2023-01-09T08:53:40.712Z,5.83
2023-01-09T08:56:09.732Z,5.85
2023-01-09T08:58:39.010Z,5.90
2023-01-09T09:01:07.816Z,5.92
2023-01-09T09:03:35.755Z,5.92
2023-01-09T09:06:04.145Z,5.99
2023-01-09T09:08:32.091Z,6.00
2023-01-09T09:11:01.295Z,6.06
2023-01-09T09:13:29.224Z,6.10
2023-01-09T09:15:58.608Z,6.09
2023-01-09T09:18:26.624Z,6.13
2023-01-09T09:20:56.700Z,6.10
2023-01-09T09:23:24.739Z,6.10
2023-01-09T09:25:52.653Z,6.17
2023-01-09T09:28:20.607Z,6.05
2023-01-09T09:30:48.640Z,6.04
2023-01-09T09:33:18.009Z,6.08
2023-01-09T09:35:46.421Z,6.09
2023-01-09T09:38:14.631Z,6.10
2023-01-09T09:41:38.106Z,6.11
2023-01-09T09:44:34.362Z,6.09
2023-01-09T09:47:05.518Z,6.07
2023-01-09T09:49:39.667Z,6.07
2023-01-09T09:52:12.580Z,6.03
2023-01-09T09:54:42.671Z,6.08
2023-01-09T09:57:15.626Z,6.04
2023-01-09T09:59:44.553Z,6.04
2023-01-09T10:02:25.533Z,6.03
2023-01-09T10:05:00.577Z,6.02
2023-01-09T10:07:32.105Z,6.05
2023-01-09T10:10:05.096Z,6.05
2023-01-09T10:12:35.212Z,6.07
2023-01-09T10:15:14.949Z,6.10
2023-01-09T10:17:53.108Z,6.18
2023-01-09T10:20:36.836Z,6.19
2023-01-09T10:23:25.967Z,6.17
2023-01-09T10:25:57.499Z,6.14
2023-01-09T10:29:05.513Z,6.22
2023-01-09T10:31:38.368Z,6.15
2023-01-09T10:34:15.848Z,6.20
2023-01-09T10:36:59.225Z,6.29
2023-01-09T10:39:29.847Z,6.29
2023-01-09T10:42:01.587Z,6.33
2023-01-09T10:44:35.871Z,6.35
2023-01-09T10:47:05.663Z,6.44
2023-01-09T10:49:33.546Z,6.49
2023-01-09T10:52:11.864Z,6.50
2023-01-09T10:54:43.392Z,6.54
2023-01-09T10:57:14.782Z,6.55
2023-01-09T10:59:43.185Z,6.59
2023-01-09T11:02:24.314Z,6.66
2023-01-09T11:04:52.264Z,6.71
2023-01-09T11:07:23.833Z,6.74
2023-01-09T11:10:00.479Z,6.87
2023-01-09T11:12:29.844Z,6.90
2023-01-09T11:14:58.268Z,6.98
2023-01-09T11:17:27.996Z,6.97
2023-01-09T11:20:03.294Z,6.98
2023-01-09T11:22:44.031Z,6.93
2023-01-09T11:25:14.641Z,6.91
2023-01-09T11:27:42.625Z,6.94
2023-01-09T11:30:24.065Z,6.94
2023-01-09T11:32:52.016Z,7.02
2023-01-09T11:35:23.225Z,7.09
2023-01-09T11:38:04.735Z,7.07
2023-01-09T11:40:37.704Z,7.05
2023-01-09T11:43:14.259Z,6.98
2023-01-09T11:46:00.689Z,6.97
2023-01-09T11:48:40.761Z,7.04
2023-01-09T11:51:20.697Z,7.06
2023-01-09T11:54:23.717Z,7.05
2023-01-09T11:56:53.521Z,7.02
2023-01-09T11:59:22.634Z,7.01
2023-01-09T12:02:02.406Z,7.10
2023-01-09T12:04:33.243Z,7.12
2023-01-09T12:07:13.447Z,7.09
2023-01-09T12:09:47.450Z,7.08
2023-01-09T12:12:27.812Z,7.04
2023-01-09T12:15:05.447Z,7.07
2023-01-09T12:18:03.376Z,7.09
2023-01-09T12:20:52.472Z,7.04
2023-01-09T12:23:26.515Z,7.03
2023-01-09T12:26:03.030Z,7.00
2023-01-09T12:28:51.560Z,6.97
2023-01-09T12:31:29.791Z,6.99
2023-01-09T12:34:05.646Z,7.00
2023-01-09T12:36:41.708Z,7.02
2023-01-09T12:39:20.874Z,7.02
2023-01-09T12:42:01.312Z,7.02
2023-01-09T12:44:45.306Z,6.89
2023-01-09T12:47:46.656Z,6.99
2023-01-09T12:50:29.164Z,6.96
2023-01-09T12:53:04.816Z,7.05
2023-01-09T12:55:35.280Z,7.10
2023-01-09T12:58:08.682Z,7.12
2023-01-09T13:00:41.645Z,7.17
2023-01-09T13:03:14.889Z,7.18
2023-01-09T13:05:45.510Z,7.12
2023-01-09T13:08:16.910Z,7.10
2023-01-09T13:10:47.518Z,7.04
2023-01-09T13:13:18.438Z,7.00
2023-01-09T13:15:49.229Z,7.03
2023-01-09T13:18:21.992Z,7.02
2023-01-09T13:20:52.346Z,7.03
2023-01-09T13:23:24.328Z,7.04
2023-01-09T13:25:53.319Z,7.07
2023-01-09T13:28:24.658Z,7.08
2023-01-09T13:31:05.068Z,7.08
2023-01-09T13:33:34.342Z,7.09
2023-01-09T13:36:03.522Z,7.06
2023-01-09T13:38:32.836Z,7.11
2023-01-09T13:41:23.570Z,7.12
2023-01-09T13:43:56.633Z,7.06
2023-01-09T13:46:35.609Z,7.01
2023-01-09T13:49:03.868Z,6.97
2023-01-09T13:52:00.037Z,6.98
2023-01-09T13:55:01.041Z,7.06
2023-01-09T13:57:30.977Z,7.02
2023-01-09T14:00:44.417Z,6.99
2023-01-09T14:03:21.574Z,6.95
2023-01-09T14:06:17.607Z,6.93
2023-01-09T14:08:46.961Z,6.99
2023-01-09T14:11:27.567Z,7.00
2023-01-09T14:14:07.998Z,6.94
2023-01-09T14:16:38.130Z,6.92
2023-01-09T14:19:20.266Z,6.88
2023-01-09T14:21:51.115Z,6.87
2023-01-09T14:24:25.489Z,6.85
2023-01-09T14:26:57.169Z,6.84
2023-01-09T14:29:45.885Z,6.84
2023-01-09T14:32:41.952Z,6.78
2023-01-09T14:35:16.827Z,6.85
2023-01-09T14:37:46.981Z,6.87
2023-01-09T14:40:23.709Z,6.90
2023-01-09T14:42:54.777Z,6.94
2023-01-09T14:45:24.954Z,6.95
2023-01-09T14:47:56.166Z,6.98
2023-01-09T14:50:32.023Z,6.99
2023-01-09T14:53:05.714Z,6.98
2023-01-09T14:55:41.503Z,6.98
2023-01-09T14:58:13.466Z,6.98
2023-01-09T15:00:49.751Z,6.99
2023-01-09T15:03:18.444Z,6.91
2023-01-09T15:05:48.487Z,6.87
2023-01-09T15:08:18.337Z,6.90
2023-01-09T15:10:48.412Z,6.88
2023-01-09T15:13:20.435Z,6.90
2023-01-09T15:15:49.035Z,6.91
2023-01-09T15:18:22.347Z,6.91
2023-01-09T15:20:56.669Z,6.90
2023-01-09T15:23:29.268Z,6.91
2023-01-09T15:25:57.714Z,6.91
2023-01-09T15:28:28.991Z,6.91
2023-01-09T15:31:04.608Z,6.87
2023-01-09T15:33:32.837Z,6.85
2023-01-09T15:36:04.512Z,6.82
2023-01-09T15:38:33.395Z,6.79
2023-01-09T15:41:02.992Z,6.76
2023-01-09T15:43:30.510Z,6.75
2023-01-09T15:45:58.815Z,6.76
2023-01-09T15:48:27.962Z,6.71
2023-01-09T15:50:58.192Z,6.72
2023-01-09T15:53:28.444Z,6.70
2023-01-09T15:56:17.610Z,6.69
2023-01-09T15:58:47.274Z,6.72
2023-01-09T16:01:30.920Z,6.72
2023-01-09T16:04:04.690Z,6.74
2023-01-09T16:06:33.862Z,6.61
2023-01-09T16:09:03.424Z,6.60
2023-01-09T16:11:32.889Z,6.58
2023-01-09T16:14:13.526Z,6.55
2023-01-09T16:16:41.659Z,6.52
2023-01-09T16:19:31.460Z,6.55
2023-01-09T16:22:00.808Z,6.56
2023-01-09T16:24:38.996Z,6.55
2023-01-09T16:27:28.759Z,6.53
2023-01-09T16:29:58.592Z,6.54
2023-01-09T16:32:29.045Z,6.54
2023-01-09T16:34:58.155Z,6.53
2023-01-09T16:37:26.808Z,6.53
2023-01-09T16:40:25.283Z,6.52
2023-01-09T16:43:03.860Z,6.52
2023-01-09T16:45:34.679Z,6.49
2023-01-09T16:48:03.264Z,6.49
2023-01-09T16:50:31.357Z,6.46
2023-01-09T16:53:00.859Z,6.44
2023-01-09T16:55:30.188Z,6.43
2023-01-09T16:57:58.100Z,6.41
2023-01-09T17:00:26.180Z,6.38
2023-01-09T17:02:54.102Z,6.40
2023-01-09T17:05:22.150Z,6.41
2023-01-09T17:07:50.067Z,6.41
2023-01-09T17:10:21.674Z,6.39
2023-01-09T17:12:51.046Z,6.37
2023-01-09T17:15:19.080Z,6.34
2023-01-09T17:17:47.007Z,6.34
2023-01-09T17:20:16.836Z,6.35
2023-01-09T17:22:44.775Z,6.34
2023-01-09T17:25:33.155Z,6.34
2023-01-09T17:28:20.293Z,6.31
2023-01-09T17:30:48.241Z,6.29
2023-01-09T17:33:16.966Z,6.29
2023-01-09T17:35:45.186Z,6.25
2023-01-09T17:38:14.471Z,6.25
2023-01-09T17:40:42.843Z,6.19
2023-01-09T17:43:12.313Z,6.10
2023-01-09T17:45:42.035Z,6.07
2023-01-09T17:48:15.512Z,6.06
2023-01-09T17:50:43.499Z,6.09
2023-01-09T17:53:11.681Z,6.12
2023-01-09T17:55:39.740Z,6.12
2023-01-09T17:58:07.717Z,6.15
2023-01-09T18:00:37.755Z,6.19
2023-01-09T18:03:07.586Z,6.17
2023-01-09T18:05:37.047Z,6.19
2023-01-09T18:08:05.843Z,6.22
2023-01-09T18:10:33.835Z,6.20
2023-01-09T18:13:01.886Z,6.21
2023-01-09T18:15:29.775Z,6.19
2023-01-09T18:17:59.128Z,6.19
2023-01-09T18:20:27.103Z,6.21
2023-01-09T18:22:55.031Z,6.24
2023-01-09T18:25:22.939Z,6.24
2023-01-09T18:27:51.751Z,6.22
2023-01-09T18:30:19.655Z,6.23
2023-01-09T18:32:47.570Z,6.24
2023-01-09T18:35:16.991Z,6.27
2023-01-09T18:37:44.921Z,6.27
2023-01-09T18:40:13.491Z,6.28
2023-01-09T18:42:42.050Z,6.31
2023-01-09T18:45:11.914Z,6.27
2023-01-09T18:47:39.886Z,6.29
2023-01-09T18:50:08.620Z,6.30
2023-01-09T18:52:37.928Z,6.32
2023-01-09T18:55:06.754Z,6.31
2023-01-09T18:57:34.663Z,6.27
2023-01-09T19:00:02.595Z,6.31
2023-01-09T19:02:30.487Z,6.30
2023-01-09T19:04:58.384Z,6.32
2023-01-09T19:07:26.309Z,6.32
2023-01-09T19:09:55.662Z,6.32
2023-01-09T19:12:23.566Z,6.30
2023-01-09T19:14:52.339Z,6.27
2023-01-09T19:17:20.865Z,6.32
2023-01-09T19:19:49.295Z,6.31
2023-01-09T19:22:17.237Z,6.32
2023-01-09T19:24:45.367Z,6.31
2023-01-09T19:27:14.676Z,6.29
2023-01-09T19:29:42.547Z,6.29
2023-01-09T19:32:10.468Z,6.29
2023-01-09T19:34:38.524Z,6.27
2023-01-09T19:37:09.147Z,6.29
2023-01-09T19:39:37.672Z,6.27
2023-01-09T19:42:05.629Z,6.29
2023-01-09T19:44:34.935Z,6.28
2023-01-09T19:47:02.846Z,6.28
2023-01-09T19:49:30.756Z,6.28
2023-01-09T19:52:00.679Z,6.24
2023-01-09T19:54:29.233Z,6.25
2023-01-09T19:56:57.400Z,6.24
2023-01-09T19:59:25.358Z,6.23
2023-01-09T20:01:55.356Z,6.23
2023-01-09T20:04:23.479Z,6.25
2023-01-09T20:06:52.707Z,6.26
2023-01-09T20:09:22.587Z,6.25
2023-01-09T20:11:50.593Z,6.25
2023-01-09T20:14:19.950Z,6.22
2023-01-09T20:16:48.730Z,6.25
2023-01-09T20:19:18.205Z,6.25
2023-01-09T20:21:46.202Z,6.26
2023-01-09T20:24:16.831Z,6.26
2023-01-09T20:26:46.197Z,6.26
2023-01-09T20:29:14.334Z,6.27
2023-01-09T20:31:42.360Z,6.27
2023-01-09T20:34:11.254Z,6.26
2023-01-09T20:36:40.709Z,6.23
2023-01-09T20:39:10.666Z,6.26
2023-01-09T20:41:38.996Z,6.27
2023-01-09T20:44:08.646Z,6.29
2023-01-09T20:46:38.204Z,6.27
2023-01-09T20:49:07.666Z,6.27
2023-01-09T20:51:35.860Z,6.29
2023-01-09T20:54:05.516Z,6.26
2023-01-09T20:56:33.617Z,6.31
2023-01-09T20:59:01.851Z,6.30
2023-01-09T21:01:29.908Z,6.26
2023-01-09T21:03:58.593Z,6.29
2023-01-09T21:06:27.641Z,6.28
2023-01-09T21:08:55.675Z,6.26
2023-01-09T21:11:24.974Z,6.30
2023-01-09T21:13:53.277Z,6.31
2023-01-09T21:16:24.516Z,6.31
2023-01-09T21:18:53.521Z,6.34
2023-01-09T21:21:24.078Z,6.32
2023-01-09T21:23:53.062Z,6.35
2023-01-09T21:26:24.413Z,6.35
2023-01-09T21:28:55.301Z,6.33
2023-01-09T21:31:25.651Z,6.35
2023-01-09T21:33:54.692Z,6.36
2023-01-09T21:36:22.640Z,6.38
2023-01-09T21:38:52.137Z,6.35
2023-01-09T21:41:37.717Z,6.39
2023-01-09T21:44:24.752Z,6.39
2023-01-09T21:46:52.668Z,6.38
2023-01-09T21:49:20.847Z,6.40
2023-01-09T21:51:48.977Z,6.38
2023-01-09T21:54:16.899Z,6.39
2023-01-09T21:56:44.824Z,6.38
2023-01-09T21:59:14.152Z,6.36
2023-01-09T22:01:42.087Z,6.38
2023-01-09T22:04:10.239Z,6.38
2023-01-09T22:06:38.175Z,6.40
2023-01-09T22:09:06.087Z,6.39
2023-01-09T22:11:34.069Z,6.41
2023-01-09T22:14:01.998Z,6.39
2023-01-09T22:16:31.376Z,6.41
2023-01-09T22:18:59.272Z,6.40
2023-01-09T22:21:27.380Z,6.40
2023-01-09T22:23:55.344Z,6.38
2023-01-09T22:26:23.306Z,6.41
2023-01-09T22:28:51.639Z,6.41
2023-01-09T22:31:20.995Z,6.42
2023-01-09T22:33:54.126Z,6.40
2023-01-09T22:36:22.160Z,6.42
2023-01-09T22:38:50.040Z,6.40
2023-01-09T22:41:17.991Z,6.39
2023-01-09T22:43:45.922Z,6.40
2023-01-09T22:46:13.913Z,6.39
2023-01-09T22:48:42.137Z,6.39
2023-01-09T22:51:13.756Z,6.38
2023-01-09T22:53:41.754Z,6.38
2023-01-09T22:56:13.293Z,6.36
2023-01-09T22:58:41.242Z,6.38
2023-01-09T23:01:11.242Z,6.38
2023-01-09T23:03:39.219Z,6.35
2023-01-09T23:06:08.889Z,6.35
2023-01-09T23:08:38.491Z,6.30
2023-01-09T23:11:08.229Z,6.26
2023-01-09T23:13:36.209Z,6.25
2023-01-09T23:16:04.200Z,6.26
2023-01-09T23:18:32.274Z,6.26
2023-01-09T23:21:02.173Z,6.25
2023-01-09T23:23:31.659Z,6.27
2023-01-09T23:26:04.841Z,6.30
2023-01-09T23:28:32.780Z,6.32
2023-01-09T23:31:00.679Z,6.35
2023-01-09T23:33:28.607Z,6.36
2023-01-09T23:35:56.514Z,6.37
2023-01-09T23:38:24.390Z,6.40
2023-01-09T23:40:56.891Z,6.38
2023-01-09T23:43:25.232Z,6.42
2023-01-09T23:45:53.657Z,6.42
2023-01-09T23:48:21.618Z,6.41
2023-01-09T23:50:50.831Z,6.43
2023-01-09T23:53:19.210Z,6.41
2023-01-09T23:55:47.200Z,6.38
2023-01-09T23:58:15.159Z,6.39
